Country
Station

 

Weather  for  Rundu  -  Namibia    Namibia

  
31 °C (88 °F)
    
 
 

Current METAR for Rundu is :

FYRU 231300Z AUTO 01002KT //// // ////// 31/19 Q1014

 

This is a report for Rundu - Namibia.
 
The report was made 14 hours and 49 minutes ago, at 13:00 UTC .
The wind was blowing at a speed of 1.0 meters per second (2.3 miles per hour) from north (010°).
 
The temperature was 31 °C (88 °F), with a dew-point at 19 °C (66 °F).
The temperature felt like 33 °C (91 °F).
 
The atmospheric pressure was 1014 hPa (29.94 inHg).
The relative humidity was 48.9%.
 

 
 
 
 

Country :   A   B   C   D   E   F   G   H   I   J   K   L   M   N   O   P   Q   R   S   T   U   V   W   Y   Z

 

Site Info  |  Disclaimer  |  Credits  |  Privacy
Contact us  |  Add to favorites
© 2013-2020 METARs - All rights reserved